createdAt,value
2022-09-05T00:00:17.947Z,80.36
2022-09-05T00:03:22.842Z,81.16
2022-09-05T00:06:03.168Z,81.29
2022-09-05T00:09:09.082Z,81.60
2022-09-05T00:11:58.385Z,81.77
2022-09-05T00:15:16.997Z,81.73
2022-09-05T00:22:14.434Z,80.99
2022-09-05T00:24:33.149Z,81.13
2022-09-05T00:24:54.698Z,80.93
2022-09-05T00:27:47.279Z,80.51
2022-09-05T00:31:51.769Z,80.58
2022-09-05T00:33:16.986Z,80.40
2022-09-05T00:36:11.178Z,79.75
2022-09-05T00:38:42.950Z,79.41
2022-09-05T00:41:14.373Z,79.78
2022-09-05T00:43:45.290Z,79.10
2022-09-05T00:46:18.162Z,78.32
2022-09-05T00:49:11.563Z,78.37
2022-09-05T00:52:20.718Z,77.89
2022-09-05T00:55:07.266Z,77.34
2022-09-05T00:57:59.284Z,76.95
2022-09-05T01:00:46.877Z,77.34
2022-09-05T01:03:29.562Z,78.35
2022-09-05T01:06:24.798Z,78.13
2022-09-05T01:08:55.892Z,77.74
2022-09-05T01:11:43.901Z,77.85
2022-09-05T01:14:39.059Z,77.57
2022-09-05T01:17:16.363Z,77.78
2022-09-05T01:20:04.686Z,78.16
2022-09-05T01:23:27.520Z,78.57
2022-09-05T01:26:24.428Z,79.00
2022-09-05T01:29:16.939Z,79.06
2022-09-05T01:32:20.917Z,79.42
2022-09-05T01:34:51.429Z,79.77
2022-09-05T01:37:44.938Z,80.12
2022-09-05T01:40:28.688Z,80.69
2022-09-05T01:43:20.566Z,81.04
2022-09-05T01:45:53.584Z,80.77
2022-09-05T01:48:37.922Z,80.57
2022-09-05T01:51:42.136Z,80.44
2022-09-05T01:54:38.417Z,80.96
2022-09-05T01:57:20.886Z,81.17
2022-09-05T02:00:09.916Z,81.00
2022-09-05T02:02:57.528Z,81.75
2022-09-05T02:05:48.503Z,81.73
2022-09-05T02:08:17.118Z,81.44
2022-09-05T02:11:05.647Z,82.29
2022-09-05T02:14:05.889Z,81.87
2022-09-05T02:16:39.349Z,82.59
2022-09-05T02:19:29.357Z,82.22
2022-09-05T02:22:11.187Z,82.95
2022-09-05T02:24:43.517Z,82.71
2022-09-05T02:27:46.120Z,82.52
2022-09-05T02:30:13.612Z,83.11
2022-09-05T02:33:06.722Z,83.68
2022-09-05T02:35:46.402Z,83.63
2022-09-05T02:42:43.496Z,82.65
2022-09-05T02:45:18.371Z,81.84
2022-09-05T02:45:19.430Z,83.62
2022-09-05T02:47:27.899Z,81.51
2022-09-05T02:55:58.764Z,82.17
2022-09-05T02:57:35.756Z,81.56
2022-09-05T02:57:38.336Z,81.86
2022-09-05T02:59:35.939Z,82.04
2022-09-05T03:02:28.644Z,81.62
2022-09-05T03:05:06.829Z,81.79
2022-09-05T03:07:52.800Z,82.24
2022-09-05T03:10:54.623Z,82.10
2022-09-05T03:13:56.306Z,82.47
2022-09-05T03:16:48.346Z,82.97
2022-09-05T03:19:50.861Z,83.10
2022-09-05T03:23:10.087Z,83.71
2022-09-05T03:26:09.603Z,83.57
2022-09-05T03:28:58.695Z,83.74
2022-09-05T03:31:50.316Z,85.07
2022-09-05T03:34:46.595Z,86.46
2022-09-05T03:37:28.447Z,86.57
2022-09-05T03:40:15.879Z,87.52
2022-09-05T03:43:21.844Z,87.96
2022-09-05T03:46:29.151Z,88.46
2022-09-05T03:49:25.868Z,89.30
2022-09-05T03:57:18.470Z,90.16
2022-09-05T03:57:20.205Z,89.65
2022-09-05T03:58:57.128Z,90.83
2022-09-05T04:04:20.303Z,91.02
2022-09-05T04:08:20.702Z,91.70
2022-09-05T04:08:24.961Z,92.33
2022-09-05T04:11:05.527Z,92.45
2022-09-05T04:13:39.587Z,93.40
2022-09-05T04:16:45.319Z,93.43
2022-09-05T04:19:25.554Z,94.41
2022-09-05T04:22:03.916Z,94.53
2022-09-05T04:25:02.953Z,94.47
2022-09-05T04:27:46.726Z,95.26
2022-09-05T04:30:38.829Z,96.21
2022-09-05T04:33:36.361Z,95.97
2022-09-05T04:36:18.769Z,96.34
2022-09-05T04:38:47.051Z,95.58
2022-09-05T04:41:19.218Z,95.10
2022-09-05T04:44:29.695Z,94.39
2022-09-05T04:47:03.446Z,94.01
2022-09-05T04:49:38.793Z,93.91
2022-09-05T04:52:20.868Z,94.47
2022-09-05T04:55:11.049Z,94.37
2022-09-05T04:58:11.969Z,94.39
2022-09-05T05:05:58.759Z,94.62
2022-09-05T05:06:09.767Z,94.37
2022-09-05T05:06:45.547Z,94.13
2022-09-05T05:09:31.780Z,94.82
2022-09-05T05:18:07.466Z,93.40
2022-09-05T05:18:14.370Z,94.36
2022-09-05T05:20:42.018Z,93.29
2022-09-05T05:23:21.446Z,92.84
2022-09-05T05:25:56.010Z,92.69
2022-09-05T05:28:29.227Z,92.98
2022-09-05T05:31:01.640Z,92.86
2022-09-05T05:33:34.928Z,92.79
2022-09-05T05:36:07.975Z,92.48
2022-09-05T05:38:35.432Z,92.25
2022-09-05T05:41:20.084Z,92.11
2022-09-05T05:43:50.340Z,91.52
2022-09-05T05:46:30.189Z,91.42
2022-09-05T05:49:14.898Z,91.46
2022-09-05T05:52:05.383Z,91.13
2022-09-05T05:54:45.650Z,90.67
2022-09-05T05:57:45.906Z,90.43
2022-09-05T06:00:36.369Z,89.57
2022-09-05T06:03:37.748Z,89.48
2022-09-05T06:06:28.975Z,89.00
2022-09-05T06:14:27.513Z,87.01
2022-09-05T06:15:01.460Z,85.88
2022-09-05T06:16:07.658Z,84.77
2022-09-05T06:18:45.709Z,83.41
2022-09-05T06:22:10.170Z,82.76
2022-09-05T06:25:11.069Z,81.65
2022-09-05T06:28:17.696Z,80.38
2022-09-05T06:31:30.296Z,79.95
2022-09-05T06:34:02.068Z,78.83
2022-09-05T06:36:57.547Z,77.55
2022-09-05T06:39:53.452Z,77.64
2022-09-05T06:42:28.564Z,75.78
2022-09-05T06:45:42.493Z,73.82
2022-09-05T06:48:44.688Z,72.04
2022-09-05T06:51:18.225Z,72.19
2022-09-05T06:54:04.314Z,71.13
2022-09-05T06:56:41.046Z,71.52
2022-09-05T06:59:34.229Z,70.58
2022-09-05T07:02:59.342Z,69.77
2022-09-05T07:05:44.931Z,69.00
2022-09-05T07:08:35.644Z,68.64
2022-09-05T07:11:11.911Z,68.93
2022-09-05T07:13:50.930Z,68.05
2022-09-05T07:16:26.550Z,67.18
2022-09-05T07:19:25.617Z,67.23
2022-09-05T07:22:29.572Z,66.65
2022-09-05T07:24:58.288Z,65.89
2022-09-05T07:28:29.999Z,65.42
2022-09-05T07:31:07.425Z,62.83
2022-09-05T07:33:39.654Z,62.53
2022-09-05T07:36:12.388Z,62.02
2022-09-05T07:38:55.070Z,60.23
2022-09-05T07:41:34.175Z,58.43
2022-09-05T07:44:28.660Z,58.18
2022-09-05T07:47:07.090Z,58.17
2022-09-05T07:49:42.233Z,57.08
2022-09-05T07:56:52.572Z,55.98
2022-09-05T07:56:54.147Z,57.00
2022-09-05T07:58:28.078Z,54.43
2022-09-05T08:00:58.776Z,54.31
2022-09-05T08:03:29.224Z,54.41
2022-09-05T08:06:00.571Z,53.53
2022-09-05T08:08:34.953Z,53.79
2022-09-05T08:11:23.381Z,52.06
2022-09-05T08:14:43.560Z,51.28
2022-09-05T08:16:54.457Z,50.78
2022-09-05T08:20:02.496Z,50.37
2022-09-05T08:22:54.338Z,49.57
2022-09-05T08:25:38.928Z,47.80
2022-09-05T08:28:39.635Z,47.78
2022-09-05T08:31:23.962Z,47.37
2022-09-05T08:33:57.194Z,47.27
2022-09-05T08:36:43.027Z,45.98
2022-09-05T08:39:13.333Z,45.85
2022-09-05T08:41:56.135Z,44.95
2022-09-05T08:46:47.656Z,44.30
2022-09-05T08:47:45.614Z,43.83
2022-09-05T08:50:26.889Z,42.75
2022-09-05T08:53:45.706Z,42.76
2022-09-05T08:56:20.434Z,43.49
2022-09-05T08:58:54.080Z,43.08
2022-09-05T09:02:45.584Z,41.16
2022-09-05T09:05:03.149Z,40.21
2022-09-05T09:07:50.624Z,39.33
2022-09-05T09:10:40.822Z,38.70
2022-09-05T09:13:21.676Z,38.23
2022-09-05T09:16:06.512Z,38.36
2022-09-05T09:18:49.373Z,35.89
2022-09-05T09:21:39.789Z,34.68
2022-09-05T09:24:22.404Z,34.83
2022-09-05T09:26:59.879Z,35.05
2022-09-05T09:29:34.351Z,34.17
2022-09-05T09:32:19.285Z,32.55
2022-09-05T09:34:58.800Z,32.45
2022-09-05T09:37:50.877Z,32.48
2022-09-05T09:41:00.758Z,31.78
2022-09-05T09:43:53.132Z,31.06
2022-09-05T09:46:43.474Z,30.79
2022-09-05T09:49:32.477Z,30.95
2022-09-05T09:52:20.653Z,30.46
2022-09-05T09:55:47.153Z,29.81
2022-09-05T09:58:33.402Z,30.16
2022-09-05T10:01:00.869Z,29.19
2022-09-05T10:10:33.031Z,29.44
2022-09-05T10:10:49.221Z,28.93
2022-09-05T10:11:24.609Z,28.57
2022-09-05T10:13:43.081Z,28.69
2022-09-05T10:16:22.854Z,28.39
2022-09-05T10:19:12.741Z,28.01
2022-09-05T10:25:19.186Z,27.57
2022-09-05T10:28:02.289Z,27.57
2022-09-05T10:31:09.590Z,28.59
2022-09-05T10:35:18.209Z,27.06
2022-09-05T10:36:32.064Z,28.32
2022-09-05T10:39:16.302Z,28.77
2022-09-05T10:41:49.902Z,29.10
2022-09-05T10:44:33.935Z,28.38
2022-09-05T10:47:13.583Z,28.22
2022-09-05T10:49:49.200Z,28.28
2022-09-05T10:52:22.805Z,28.60
2022-09-05T10:55:32.149Z,27.69
2022-09-05T10:58:07.452Z,26.78
2022-09-05T11:02:23.801Z,26.37
2022-09-05T11:03:50.307Z,25.72
2022-09-05T11:06:24.672Z,25.56
2022-09-05T11:09:16.501Z,25.93
2022-09-05T11:11:48.201Z,25.62
2022-09-05T11:14:35.302Z,25.40
2022-09-05T11:17:16.606Z,25.19
2022-09-05T11:19:51.369Z,25.33
2022-09-05T11:22:23.863Z,25.12
2022-09-05T11:24:51.844Z,25.03
2022-09-05T11:27:33.760Z,25.09
2022-09-05T11:30:27.311Z,24.47
2022-09-05T11:39:21.915Z,25.14
2022-09-05T11:40:02.932Z,24.29
2022-09-05T11:40:43.599Z,24.31
2022-09-05T11:43:48.067Z,24.50
2022-09-05T11:46:34.215Z,24.65
2022-09-05T11:49:13.649Z,25.08
2022-09-05T11:52:35.123Z,25.42
2022-09-05T11:55:21.791Z,25.42
2022-09-05T11:58:43.777Z,24.73
2022-09-05T12:01:41.167Z,23.87
2022-09-05T12:04:38.937Z,25.02
2022-09-05T12:07:31.577Z,25.09
2022-09-05T12:10:47.951Z,25.05
2022-09-05T12:13:53.137Z,25.71
2022-09-05T12:16:42.265Z,24.89
2022-09-05T12:19:34.498Z,24.11
2022-09-05T12:22:18.626Z,23.86
2022-09-05T12:25:27.256Z,23.87
2022-09-05T12:29:09.717Z,24.72
2022-09-05T12:32:36.477Z,24.62
2022-09-05T12:36:10.577Z,23.56
2022-09-05T12:40:45.151Z,23.51
2022-09-05T12:40:58.370Z,23.32
2022-09-05T12:44:22.921Z,23.04
2022-09-05T12:45:44.068Z,23.28
2022-09-05T12:48:41.317Z,22.39
2022-09-05T12:51:45.086Z,22.72
2022-09-05T12:54:31.192Z,22.83
2022-09-05T13:02:55.129Z,22.79
2022-09-05T13:03:13.207Z,23.56
2022-09-05T13:03:27.837Z,23.89
2022-09-05T13:06:02.121Z,24.48
2022-09-05T13:08:44.122Z,24.21
2022-09-05T13:14:09.028Z,24.59
2022-09-05T13:14:52.311Z,25.29
2022-09-05T13:17:00.015Z,24.23
2022-09-05T13:19:51.203Z,24.27
2022-09-05T13:22:23.764Z,23.29
2022-09-05T13:25:11.236Z,23.63
2022-09-05T13:27:46.617Z,24.03
2022-09-05T13:32:49.970Z,24.23
2022-09-05T13:38:07.303Z,24.99
2022-09-05T13:38:10.558Z,24.02
2022-09-05T13:39:22.922Z,25.09
2022-09-05T13:41:59.556Z,24.92
2022-09-05T13:44:30.039Z,25.24
2022-09-05T13:47:28.419Z,25.61
2022-09-05T13:50:09.505Z,26.73
2022-09-05T13:52:44.134Z,26.37
2022-09-05T13:56:00.532Z,25.49
2022-09-05T13:58:56.850Z,25.54
2022-09-05T14:02:25.774Z,25.89
2022-09-05T14:05:20.818Z,26.59
2022-09-05T14:08:17.876Z,26.98
2022-09-05T14:10:51.339Z,26.52
2022-09-05T14:14:11.239Z,27.06
2022-09-05T14:16:54.304Z,27.31
2022-09-05T14:19:43.267Z,27.60
2022-09-05T14:22:22.190Z,27.83
2022-09-05T14:24:58.327Z,28.24
2022-09-05T14:27:32.094Z,27.45
2022-09-05T14:30:39.996Z,27.76
2022-09-05T14:37:35.910Z,28.56
2022-09-05T14:37:49.417Z,28.28
2022-09-05T14:40:26.497Z,29.69
2022-09-05T14:43:07.404Z,28.84
2022-09-05T14:46:04.731Z,28.99
2022-09-05T14:48:46.323Z,30.63
2022-09-05T14:51:30.754Z,28.85
2022-09-05T14:54:11.966Z,29.82
2022-09-05T14:58:39.900Z,30.52
2022-09-05T15:02:49.130Z,30.49
2022-09-05T15:03:00.721Z,30.16
2022-09-05T15:05:30.821Z,29.17
2022-09-05T15:08:18.292Z,29.73
2022-09-05T15:12:14.755Z,31.10
2022-09-05T15:14:03.814Z,29.94
2022-09-05T15:16:35.581Z,29.60
2022-09-05T15:19:03.248Z,29.37
2022-09-05T15:21:38.274Z,29.93
2022-09-05T15:24:22.927Z,29.18
2022-09-05T15:27:01.855Z,29.50
2022-09-05T15:29:34.036Z,29.56
2022-09-05T15:32:21.377Z,29.04
2022-09-05T15:34:50.830Z,30.02
2022-09-05T15:37:24.485Z,30.68
2022-09-05T15:40:23.160Z,30.72
2022-09-05T15:43:00.581Z,31.33
2022-09-05T15:45:32.189Z,34.23
2022-09-05T15:48:26.543Z,33.45
2022-09-05T15:51:08.738Z,33.39
2022-09-05T15:53:38.903Z,33.03
2022-09-05T15:56:12.416Z,34.35
2022-09-05T15:58:54.084Z,35.46
2022-09-05T16:01:58.902Z,36.36
2022-09-05T16:07:53.171Z,34.33
2022-09-05T16:10:33.926Z,33.76
2022-09-05T16:10:39.979Z,35.28
2022-09-05T16:13:17.351Z,35.19
2022-09-05T16:20:51.063Z,36.77
2022-09-05T16:23:14.997Z,35.69
2022-09-05T16:23:36.831Z,35.35
2022-09-05T16:24:38.598Z,36.53
2022-09-05T16:27:43.913Z,36.39
2022-09-05T16:30:15.797Z,36.59
2022-09-05T16:32:51.349Z,36.64
2022-09-05T16:35:24.915Z,38.24
2022-09-05T16:38:03.985Z,36.47
2022-09-05T16:40:43.610Z,38.24
2022-09-05T16:43:16.801Z,38.14
2022-09-05T16:46:05.751Z,38.87
2022-09-05T16:49:09.812Z,37.12
2022-09-05T16:51:44.555Z,38.68
2022-09-05T16:54:33.439Z,38.67
2022-09-05T16:57:02.686Z,38.37
2022-09-05T16:59:33.105Z,38.30
2022-09-05T17:02:08.282Z,38.72
2022-09-05T17:05:04.031Z,39.29
2022-09-05T17:07:41.952Z,39.88
2022-09-05T17:10:13.128Z,39.98
2022-09-05T17:12:42.233Z,40.60
2022-09-05T17:15:18.048Z,41.74
2022-09-05T17:18:19.065Z,41.41
2022-09-05T17:20:37.100Z,41.45
2022-09-05T17:29:15.057Z,42.61
2022-09-05T17:29:28.934Z,43.04
2022-09-05T17:30:23.605Z,42.95
2022-09-05T17:32:01.965Z,43.21
2022-09-05T17:34:53.706Z,42.31
2022-09-05T17:37:35.502Z,43.28
2022-09-05T17:40:20.643Z,43.96
2022-09-05T17:42:52.704Z,43.42
2022-09-05T17:45:58.186Z,41.84
2022-09-05T17:48:59.992Z,41.67
2022-09-05T17:51:35.117Z,40.96
2022-09-05T17:54:04.799Z,41.03
2022-09-05T17:56:39.678Z,41.46
2022-09-05T17:59:19.311Z,41.22
2022-09-05T18:02:05.648Z,41.97
2022-09-05T18:05:00.178Z,42.18
2022-09-05T18:07:28.541Z,43.59
2022-09-05T18:10:15.324Z,43.56
2022-09-05T18:15:38.838Z,43.72
2022-09-05T18:21:21.287Z,44.32
2022-09-05T18:23:59.489Z,43.71
2022-09-05T18:26:28.969Z,44.81
2022-09-05T18:29:05.905Z,43.81
2022-09-05T18:31:42.532Z,44.76
2022-09-05T18:34:14.233Z,44.84
2022-09-05T18:36:43.833Z,45.38
2022-09-05T18:39:26.607Z,45.16
2022-09-05T18:42:25.881Z,44.83
2022-09-05T18:45:16.063Z,44.88
2022-09-05T18:47:52.621Z,44.96
2022-09-05T18:50:28.067Z,45.51
2022-09-05T18:53:09.960Z,46.28
2022-09-05T18:56:14.249Z,46.94
2022-09-05T18:59:13.045Z,48.06
2022-09-05T19:02:05.593Z,46.09
2022-09-05T19:04:39.598Z,45.53
2022-09-05T19:07:13.814Z,45.72
2022-09-05T19:10:34.937Z,45.45
2022-09-05T19:13:03.092Z,45.08
2022-09-05T19:15:37.478Z,45.87
2022-09-05T19:18:26.583Z,45.59
2022-09-05T19:21:16.747Z,46.03
2022-09-05T19:23:58.423Z,45.52
2022-09-05T19:26:26.540Z,45.27
2022-09-05T19:36:51.126Z,46.13
2022-09-05T19:36:53.189Z,46.36
2022-09-05T19:37:12.858Z,45.84
2022-09-05T19:37:46.504Z,46.19
2022-09-05T19:47:27.220Z,46.69
2022-09-05T19:47:38.914Z,46.42
2022-09-05T19:47:50.842Z,47.15
2022-09-05T19:49:14.199Z,48.75
2022-09-05T19:51:42.778Z,49.18
2022-09-05T19:54:26.407Z,49.09
2022-09-05T19:57:00.295Z,49.37
2022-09-05T19:59:35.069Z,49.80
2022-09-05T20:02:03.775Z,50.76
2022-09-05T20:04:36.823Z,51.16
2022-09-05T20:07:31.009Z,52.63
2022-09-05T20:10:01.579Z,54.00
2022-09-05T20:12:30.389Z,55.41
2022-09-05T20:15:18.099Z,57.50
2022-09-05T20:17:46.118Z,59.26
2022-09-05T20:20:34.864Z,60.87
2022-09-05T20:23:06.029Z,62.13
2022-09-05T20:25:39.652Z,62.87
2022-09-05T20:28:17.822Z,63.66
2022-09-05T20:30:57.089Z,63.95
2022-09-05T20:33:39.978Z,63.29
2022-09-05T20:43:10.770Z,64.52
2022-09-05T20:43:29.306Z,64.79
2022-09-05T20:43:36.697Z,64.89
2022-09-05T20:45:46.117Z,64.99
2022-09-05T20:54:07.567Z,65.18
2022-09-05T20:54:27.561Z,65.14
2022-09-05T20:54:31.784Z,64.92
2022-09-05T20:56:56.679Z,64.63
2022-09-05T20:59:33.458Z,64.36
2022-09-05T21:02:04.677Z,64.80
2022-09-05T21:04:35.107Z,64.79
2022-09-05T21:07:35.635Z,65.55
2022-09-05T21:10:07.976Z,66.14
2022-09-05T21:12:57.859Z,67.38
2022-09-05T21:15:52.862Z,68.52
2022-09-05T21:18:23.127Z,70.00
2022-09-05T21:21:02.229Z,70.50
2022-09-05T21:23:38.646Z,70.99
2022-09-05T21:26:22.025Z,71.35
2022-09-05T21:29:08.750Z,72.08
2022-09-05T21:31:48.291Z,72.91
2022-09-05T21:34:26.302Z,73.98
2022-09-05T21:37:01.214Z,74.38
2022-09-05T21:39:39.952Z,75.96
2022-09-05T21:42:21.307Z,76.96
2022-09-05T21:47:48.113Z,77.59
2022-09-05T21:47:53.793Z,79.05
2022-09-05T21:50:31.445Z,80.18
2022-09-05T21:53:43.223Z,81.68
2022-09-05T21:59:26.137Z,83.01
2022-09-05T21:59:32.838Z,84.56
2022-09-05T22:01:51.281Z,86.84
2022-09-05T22:04:16.640Z,88.29
2022-09-05T22:06:48.523Z,89.41
2022-09-05T22:09:20.387Z,89.06
2022-09-05T22:11:50.424Z,88.50
2022-09-05T22:14:19.685Z,86.77
2022-09-05T22:16:50.360Z,87.82
2022-09-05T22:19:26.124Z,87.29
2022-09-05T22:22:04.032Z,88.00
2022-09-05T22:24:33.512Z,89.33
2022-09-05T22:27:12.083Z,90.29
2022-09-05T22:29:40.853Z,91.36
2022-09-05T22:32:08.750Z,90.79
2022-09-05T22:34:36.274Z,90.53
2022-09-05T22:37:03.770Z,90.78
2022-09-05T22:39:37.657Z,91.90
2022-09-05T22:42:10.805Z,90.55
2022-09-05T22:44:42.609Z,91.32
2022-09-05T22:47:11.337Z,92.01
2022-09-05T22:49:38.849Z,92.95
2022-09-05T22:52:10.122Z,93.88
2022-09-05T22:54:37.784Z,95.29
2022-09-05T22:57:05.802Z,96.17
2022-09-05T22:59:33.304Z,96.51
2022-09-05T23:02:00.895Z,95.41
2022-09-05T23:04:28.966Z,95.99
2022-09-05T23:06:56.534Z,93.95
2022-09-05T23:09:24.045Z,94.75
2022-09-05T23:11:51.521Z,92.91
2022-09-05T23:14:19.023Z,91.57
2022-09-05T23:16:46.544Z,90.41
2022-09-05T23:19:14.074Z,90.16
2022-09-05T23:21:41.543Z,89.05
2022-09-05T23:24:09.047Z,88.46
2022-09-05T23:26:36.643Z,88.41
2022-09-05T23:29:04.198Z,89.45
2022-09-05T23:31:31.726Z,90.40
2022-09-05T23:33:59.273Z,89.11
2022-09-05T23:36:26.841Z,88.93
2022-09-05T23:38:54.385Z,91.16
2022-09-05T23:41:21.884Z,92.59
2022-09-05T23:43:49.414Z,92.77
2022-09-05T23:46:17.153Z,94.02
2022-09-05T23:48:44.683Z,94.46
2022-09-05T23:51:13.817Z,96.59
2022-09-05T23:53:42.073Z,96.72
2022-09-05T23:56:11.515Z,97.16
2022-09-05T23:58:39.688Z,97.55
